sensor_id;sensor_type;location;lat;lon;timestamp;P1;durP1;ratioP1;P2;durP2;ratioP2
81318;SDS011;70784;48.420;14.830;2023-07-13T00:02:07;5.00;;;2.53;;
81318;SDS011;70784;48.420;14.830;2023-07-13T00:04:53;3.33;;;2.00;;
81318;SDS011;70784;48.420;14.830;2023-07-13T00:07:37;2.78;;;2.30;;
81318;SDS011;70784;48.420;14.830;2023-07-13T00:10:22;4.60;;;2.38;;
81318;SDS011;70784;48.420;14.830;2023-07-13T00:13:07;3.85;;;2.20;;
81318;SDS011;70784;48.420;14.830;2023-07-13T00:15:53;6.85;;;2.25;;
81318;SDS011;70784;48.420;14.830;2023-07-13T00:18:38;3.03;;;2.10;;
81318;SDS011;70784;48.420;14.830;2023-07-13T00:21:22;3.90;;;2.22;;
81318;SDS011;70784;48.420;14.830;2023-07-13T00:24:07;2.92;;;1.75;;
81318;SDS011;70784;48.420;14.830;2023-07-13T00:26:56;4.60;;;2.58;;
81318;SDS011;70784;48.420;14.830;2023-07-13T00:29:41;3.72;;;2.25;;
81318;SDS011;70784;48.420;14.830;2023-07-13T00:32:25;3.13;;;2.83;;
81318;SDS011;70784;48.420;14.830;2023-07-13T00:35:12;5.68;;;2.55;;
81318;SDS011;70784;48.420;14.830;2023-07-13T00:37:59;4.47;;;2.47;;
81318;SDS011;70784;48.420;14.830;2023-07-13T00:40:43;2.90;;;2.50;;
81318;SDS011;70784;48.420;14.830;2023-07-13T00:43:28;4.18;;;2.58;;
81318;SDS011;70784;48.420;14.830;2023-07-13T00:46:21;3.67;;;2.85;;
81318;SDS011;70784;48.420;14.830;2023-07-13T00:49:06;4.75;;;2.47;;
81318;SDS011;70784;48.420;14.830;2023-07-13T00:51:57;5.15;;;3.10;;
81318;SDS011;70784;48.420;14.830;2023-07-13T00:54:46;3.15;;;2.78;;
81318;SDS011;70784;48.420;14.830;2023-07-13T00:57:31;5.13;;;2.63;;
81318;SDS011;70784;48.420;14.830;2023-07-13T01:00:16;9.00;;;4.43;;
81318;SDS011;70784;48.420;14.830;2023-07-13T01:03:01;6.60;;;3.63;;
81318;SDS011;70784;48.420;14.830;2023-07-13T01:05:48;9.57;;;4.43;;
81318;SDS011;70784;48.420;14.830;2023-07-13T01:08:34;4.40;;;3.08;;
81318;SDS011;70784;48.420;14.830;2023-07-13T01:11:19;4.95;;;3.97;;
81318;SDS011;70784;48.420;14.830;2023-07-13T01:14:06;7.70;;;5.97;;
81318;SDS011;70784;48.420;14.830;2023-07-13T01:16:51;9.48;;;6.10;;
81318;SDS011;70784;48.420;14.830;2023-07-13T01:22:24;7.15;;;5.25;;
81318;SDS011;70784;48.420;14.830;2023-07-13T01:25:10;8.98;;;7.53;;
81318;SDS011;70784;48.420;14.830;2023-07-13T01:27:55;7.95;;;5.82;;
81318;SDS011;70784;48.420;14.830;2023-07-13T01:30:40;7.55;;;6.50;;
81318;SDS011;70784;48.420;14.830;2023-07-13T01:33:25;6.38;;;5.60;;
81318;SDS011;70784;48.420;14.830;2023-07-13T01:36:10;8.02;;;4.95;;
81318;SDS011;70784;48.420;14.830;2023-07-13T01:38:55;6.00;;;4.80;;
81318;SDS011;70784;48.420;14.830;2023-07-13T01:41:40;4.78;;;4.28;;
81318;SDS011;70784;48.420;14.830;2023-07-13T01:44:24;4.60;;;4.15;;
81318;SDS011;70784;48.420;14.830;2023-07-13T01:47:10;3.67;;;2.95;;
81318;SDS011;70784;48.420;14.830;2023-07-13T01:49:55;3.97;;;2.78;;
81318;SDS011;70784;48.420;14.830;2023-07-13T01:52:39;4.43;;;3.75;;
81318;SDS011;70784;48.420;14.830;2023-07-13T01:55:23;6.93;;;4.15;;
81318;SDS011;70784;48.420;14.830;2023-07-13T01:58:08;6.50;;;3.42;;
81318;SDS011;70784;48.420;14.830;2023-07-13T02:00:53;4.63;;;3.75;;
81318;SDS011;70784;48.420;14.830;2023-07-13T02:03:43;4.28;;;3.17;;
81318;SDS011;70784;48.420;14.830;2023-07-13T02:06:33;4.78;;;3.85;;
81318;SDS011;70784;48.420;14.830;2023-07-13T02:09:19;5.03;;;3.90;;
81318;SDS011;70784;48.420;14.830;2023-07-13T02:12:05;4.00;;;3.17;;
81318;SDS011;70784;48.420;14.830;2023-07-13T02:14:52;6.88;;;3.85;;
81318;SDS011;70784;48.420;14.830;2023-07-13T02:17:44;3.83;;;3.45;;
81318;SDS011;70784;48.420;14.830;2023-07-13T02:20:31;4.97;;;4.47;;
81318;SDS011;70784;48.420;14.830;2023-07-13T02:23:18;4.10;;;3.70;;
81318;SDS011;70784;48.420;14.830;2023-07-13T02:26:05;6.32;;;5.13;;
81318;SDS011;70784;48.420;14.830;2023-07-13T02:28:52;4.28;;;3.88;;
81318;SDS011;70784;48.420;14.830;2023-07-13T02:31:38;6.47;;;5.13;;
81318;SDS011;70784;48.420;14.830;2023-07-13T02:34:28;6.13;;;4.88;;
81318;SDS011;70784;48.420;14.830;2023-07-13T02:37:14;5.75;;;4.88;;
81318;SDS011;70784;48.420;14.830;2023-07-13T02:40:04;8.98;;;4.80;;
81318;SDS011;70784;48.420;14.830;2023-07-13T02:42:53;6.65;;;5.28;;
81318;SDS011;70784;48.420;14.830;2023-07-13T02:45:43;7.63;;;6.82;;
81318;SDS011;70784;48.420;14.830;2023-07-13T02:48:30;8.13;;;5.90;;
81318;SDS011;70784;48.420;14.830;2023-07-13T02:51:16;8.48;;;6.80;;
81318;SDS011;70784;48.420;14.830;2023-07-13T02:54:04;6.53;;;5.75;;
81318;SDS011;70784;48.420;14.830;2023-07-13T02:56:52;7.32;;;6.35;;
81318;SDS011;70784;48.420;14.830;2023-07-13T02:59:39;5.75;;;5.15;;
81318;SDS011;70784;48.420;14.830;2023-07-13T03:02:29;8.55;;;7.10;;
81318;SDS011;70784;48.420;14.830;2023-07-13T03:05:17;8.60;;;7.65;;
81318;SDS011;70784;48.420;14.830;2023-07-13T03:08:03;6.53;;;5.70;;
81318;SDS011;70784;48.420;14.830;2023-07-13T03:11:00;7.63;;;6.68;;
81318;SDS011;70784;48.420;14.830;2023-07-13T03:13:48;7.93;;;7.13;;
81318;SDS011;70784;48.420;14.830;2023-07-13T03:16:34;8.98;;;8.07;;
81318;SDS011;70784;48.420;14.830;2023-07-13T03:19:21;4.15;;;2.03;;
81318;SDS011;70784;48.420;14.830;2023-07-13T03:22:08;10.65;;;6.70;;
81318;SDS011;70784;48.420;14.830;2023-07-13T03:24:56;7.15;;;6.25;;
81318;SDS011;70784;48.420;14.830;2023-07-13T03:27:45;9.57;;;6.78;;
81318;SDS011;70784;48.420;14.830;2023-07-13T03:30:31;9.88;;;6.45;;
81318;SDS011;70784;48.420;14.830;2023-07-13T03:33:21;9.75;;;7.18;;
81318;SDS011;70784;48.420;14.830;2023-07-13T03:36:09;10.18;;;6.65;;
81318;SDS011;70784;48.420;14.830;2023-07-13T03:38:59;7.07;;;5.85;;
81318;SDS011;70784;48.420;14.830;2023-07-13T03:41:49;9.68;;;6.55;;
81318;SDS011;70784;48.420;14.830;2023-07-13T03:44:36;8.20;;;6.55;;
81318;SDS011;70784;48.420;14.830;2023-07-13T03:47:22;7.43;;;5.72;;
81318;SDS011;70784;48.420;14.830;2023-07-13T03:50:12;9.02;;;7.60;;
81318;SDS011;70784;48.420;14.830;2023-07-13T03:52:59;8.98;;;6.60;;
81318;SDS011;70784;48.420;14.830;2023-07-13T03:55:46;10.88;;;8.88;;
81318;SDS011;70784;48.420;14.830;2023-07-13T03:58:34;13.20;;;8.25;;
81318;SDS011;70784;48.420;14.830;2023-07-13T04:01:23;10.48;;;7.47;;
81318;SDS011;70784;48.420;14.830;2023-07-13T04:04:10;12.23;;;8.20;;
81318;SDS011;70784;48.420;14.830;2023-07-13T04:06:57;11.27;;;8.48;;
81318;SDS011;70784;48.420;14.830;2023-07-13T04:09:43;11.90;;;9.15;;
81318;SDS011;70784;48.420;14.830;2023-07-13T04:12:30;13.40;;;8.90;;
81318;SDS011;70784;48.420;14.830;2023-07-13T04:15:17;12.43;;;9.27;;
81318;SDS011;70784;48.420;14.830;2023-07-13T04:18:04;11.90;;;8.57;;
81318;SDS011;70784;48.420;14.830;2023-07-13T04:20:52;12.52;;;9.35;;
81318;SDS011;70784;48.420;14.830;2023-07-13T04:23:41;15.23;;;9.32;;
81318;SDS011;70784;48.420;14.830;2023-07-13T04:26:28;14.23;;;9.32;;
81318;SDS011;70784;48.420;14.830;2023-07-13T04:29:16;12.63;;;9.20;;
81318;SDS011;70784;48.420;14.830;2023-07-13T04:32:02;11.32;;;7.00;;
81318;SDS011;70784;48.420;14.830;2023-07-13T04:34:49;15.07;;;8.90;;
81318;SDS011;70784;48.420;14.830;2023-07-13T04:37:38;13.07;;;9.43;;
81318;SDS011;70784;48.420;14.830;2023-07-13T04:40:25;12.38;;;8.00;;
81318;SDS011;70784;48.420;14.830;2023-07-13T04:43:12;12.45;;;9.30;;
81318;SDS011;70784;48.420;14.830;2023-07-13T04:46:08;11.63;;;7.43;;
81318;SDS011;70784;48.420;14.830;2023-07-13T04:48:57;11.20;;;7.57;;
81318;SDS011;70784;48.420;14.830;2023-07-13T04:51:44;13.10;;;7.45;;
81318;SDS011;70784;48.420;14.830;2023-07-13T04:54:31;9.77;;;6.72;;
81318;SDS011;70784;48.420;14.830;2023-07-13T04:57:18;12.68;;;7.30;;
81318;SDS011;70784;48.420;14.830;2023-07-13T05:00:04;10.93;;;7.85;;
81318;SDS011;70784;48.420;14.830;2023-07-13T05:02:53;10.60;;;7.57;;
81318;SDS011;70784;48.420;14.830;2023-07-13T05:05:42;10.38;;;7.38;;
81318;SDS011;70784;48.420;14.830;2023-07-13T05:08:28;8.75;;;6.28;;
81318;SDS011;70784;48.420;14.830;2023-07-13T05:11:17;9.60;;;6.32;;
81318;SDS011;70784;48.420;14.830;2023-07-13T05:14:04;10.02;;;6.50;;
81318;SDS011;70784;48.420;14.830;2023-07-13T05:16:51;8.88;;;6.45;;
81318;SDS011;70784;48.420;14.830;2023-07-13T05:19:38;8.50;;;6.45;;
81318;SDS011;70784;48.420;14.830;2023-07-13T05:22:24;8.35;;;5.68;;
81318;SDS011;70784;48.420;14.830;2023-07-13T05:25:10;7.90;;;5.03;;
81318;SDS011;70784;48.420;14.830;2023-07-13T05:27:58;7.63;;;4.80;;
81318;SDS011;70784;48.420;14.830;2023-07-13T05:30:48;7.00;;;4.82;;
81318;SDS011;70784;48.420;14.830;2023-07-13T05:33:35;4.95;;;3.80;;
81318;SDS011;70784;48.420;14.830;2023-07-13T05:36:22;4.95;;;3.53;;
81318;SDS011;70784;48.420;14.830;2023-07-13T05:39:10;8.63;;;3.42;;
81318;SDS011;70784;48.420;14.830;2023-07-13T05:41:56;4.88;;;2.60;;
81318;SDS011;70784;48.420;14.830;2023-07-13T05:44:47;4.70;;;2.90;;
81318;SDS011;70784;48.420;14.830;2023-07-13T05:47:33;4.03;;;3.00;;
81318;SDS011;70784;48.420;14.830;2023-07-13T05:50:20;3.85;;;2.88;;
81318;SDS011;70784;48.420;14.830;2023-07-13T05:53:16;4.93;;;3.53;;
81318;SDS011;70784;48.420;14.830;2023-07-13T05:56:03;4.63;;;2.80;;
81318;SDS011;70784;48.420;14.830;2023-07-13T05:58:50;4.68;;;3.55;;
81318;SDS011;70784;48.420;14.830;2023-07-13T06:01:37;3.78;;;2.53;;
81318;SDS011;70784;48.420;14.830;2023-07-13T06:04:23;5.00;;;3.13;;
81318;SDS011;70784;48.420;14.830;2023-07-13T06:07:13;4.70;;;3.10;;
81318;SDS011;70784;48.420;14.830;2023-07-13T06:10:00;3.90;;;3.00;;
81318;SDS011;70784;48.420;14.830;2023-07-13T06:12:46;6.35;;;3.58;;
81318;SDS011;70784;48.420;14.830;2023-07-13T06:15:34;3.97;;;3.45;;
81318;SDS011;70784;48.420;14.830;2023-07-13T06:18:20;2.70;;;2.22;;
81318;SDS011;70784;48.420;14.830;2023-07-13T06:21:09;3.75;;;2.92;;
81318;SDS011;70784;48.420;14.830;2023-07-13T06:24:03;4.22;;;3.13;;
81318;SDS011;70784;48.420;14.830;2023-07-13T06:26:50;4.35;;;3.17;;
81318;SDS011;70784;48.420;14.830;2023-07-13T06:29:36;3.55;;;3.25;;
81318;SDS011;70784;48.420;14.830;2023-07-13T06:32:21;4.45;;;3.28;;
81318;SDS011;70784;48.420;14.830;2023-07-13T06:35:06;4.32;;;3.60;;
81318;SDS011;70784;48.420;14.830;2023-07-13T06:37:50;3.38;;;3.05;;
81318;SDS011;70784;48.420;14.830;2023-07-13T06:40:35;3.42;;;2.25;;
81318;SDS011;70784;48.420;14.830;2023-07-13T06:43:19;5.85;;;3.35;;
81318;SDS011;70784;48.420;14.830;2023-07-13T06:46:05;5.07;;;3.60;;
81318;SDS011;70784;48.420;14.830;2023-07-13T06:48:49;4.60;;;3.75;;
81318;SDS011;70784;48.420;14.830;2023-07-13T06:51:34;4.72;;;2.97;;
81318;SDS011;70784;48.420;14.830;2023-07-13T06:54:19;4.70;;;3.45;;
81318;SDS011;70784;48.420;14.830;2023-07-13T06:57:03;5.32;;;3.00;;
81318;SDS011;70784;48.420;14.830;2023-07-13T06:59:48;4.85;;;4.07;;
81318;SDS011;70784;48.420;14.830;2023-07-13T07:02:32;5.53;;;3.85;;
81318;SDS011;70784;48.420;14.830;2023-07-13T07:05:17;3.78;;;3.33;;
81318;SDS011;70784;48.420;14.830;2023-07-13T07:08:02;3.25;;;2.72;;
81318;SDS011;70784;48.420;14.830;2023-07-13T07:10:46;4.82;;;3.33;;
81318;SDS011;70784;48.420;14.830;2023-07-13T07:13:30;4.35;;;3.05;;
81318;SDS011;70784;48.420;14.830;2023-07-13T07:16:15;5.68;;;3.25;;
81318;SDS011;70784;48.420;14.830;2023-07-13T07:19:00;4.45;;;3.25;;
81318;SDS011;70784;48.420;14.830;2023-07-13T07:21:44;3.97;;;3.08;;
81318;SDS011;70784;48.420;14.830;2023-07-13T07:24:29;5.00;;;3.38;;
81318;SDS011;70784;48.420;14.830;2023-07-13T07:27:13;4.15;;;3.30;;
81318;SDS011;70784;48.420;14.830;2023-07-13T07:29:57;3.63;;;3.17;;
81318;SDS011;70784;48.420;14.830;2023-07-13T07:32:43;3.92;;;3.03;;
81318;SDS011;70784;48.420;14.830;2023-07-13T07:35:27;5.03;;;3.40;;
81318;SDS011;70784;48.420;14.830;2023-07-13T07:38:12;4.75;;;3.28;;
81318;SDS011;70784;48.420;14.830;2023-07-13T07:40:56;4.93;;;3.40;;
81318;SDS011;70784;48.420;14.830;2023-07-13T07:43:41;3.60;;;2.72;;
81318;SDS011;70784;48.420;14.830;2023-07-13T07:46:25;5.07;;;3.35;;
81318;SDS011;70784;48.420;14.830;2023-07-13T07:49:09;4.57;;;3.10;;
81318;SDS011;70784;48.420;14.830;2023-07-13T07:51:54;5.05;;;3.38;;
81318;SDS011;70784;48.420;14.830;2023-07-13T07:54:39;6.28;;;4.55;;
81318;SDS011;70784;48.420;14.830;2023-07-13T07:57:24;3.15;;;2.85;;
81318;SDS011;70784;48.420;14.830;2023-07-13T08:00:08;5.97;;;3.88;;
81318;SDS011;70784;48.420;14.830;2023-07-13T08:02:53;5.30;;;4.07;;
81318;SDS011;70784;48.420;14.830;2023-07-13T08:05:38;4.88;;;2.83;;
81318;SDS011;70784;48.420;14.830;2023-07-13T08:08:22;5.18;;;3.85;;
81318;SDS011;70784;48.420;14.830;2023-07-13T08:11:08;4.90;;;4.05;;
81318;SDS011;70784;48.420;14.830;2023-07-13T08:13:53;5.07;;;3.53;;
81318;SDS011;70784;48.420;14.830;2023-07-13T08:16:37;5.97;;;3.92;;
81318;SDS011;70784;48.420;14.830;2023-07-13T08:19:21;6.45;;;4.32;;
81318;SDS011;70784;48.420;14.830;2023-07-13T08:22:06;4.80;;;3.28;;
81318;SDS011;70784;48.420;14.830;2023-07-13T08:24:51;3.97;;;3.35;;
81318;SDS011;70784;48.420;14.830;2023-07-13T08:27:40;4.85;;;3.60;;
81318;SDS011;70784;48.420;14.830;2023-07-13T08:30:24;4.55;;;4.10;;
81318;SDS011;70784;48.420;14.830;2023-07-13T08:33:08;6.18;;;3.75;;
81318;SDS011;70784;48.420;14.830;2023-07-13T08:35:53;7.38;;;4.07;;
81318;SDS011;70784;48.420;14.830;2023-07-13T08:38:37;8.00;;;3.58;;
81318;SDS011;70784;48.420;14.830;2023-07-13T08:41:22;6.20;;;3.67;;
81318;SDS011;70784;48.420;14.830;2023-07-13T08:44:11;5.13;;;4.20;;
81318;SDS011;70784;48.420;14.830;2023-07-13T08:47:08;7.50;;;3.72;;
81318;SDS011;70784;48.420;14.830;2023-07-13T08:49:57;5.03;;;4.38;;
81318;SDS011;70784;48.420;14.830;2023-07-13T08:52:42;4.10;;;3.50;;
81318;SDS011;70784;48.420;14.830;2023-07-13T08:55:32;4.20;;;3.65;;
81318;SDS011;70784;48.420;14.830;2023-07-13T08:58:21;4.80;;;3.92;;
81318;SDS011;70784;48.420;14.830;2023-07-13T09:01:10;3.92;;;3.33;;
81318;SDS011;70784;48.420;14.830;2023-07-13T09:04:09;4.93;;;4.22;;
81318;SDS011;70784;48.420;14.830;2023-07-13T09:16:12;5.22;;;3.67;;
81318;SDS011;70784;48.420;14.830;2023-07-13T09:19:02;4.85;;;3.92;;
81318;SDS011;70784;48.420;14.830;2023-07-13T09:21:50;6.85;;;3.55;;
81318;SDS011;70784;48.420;14.830;2023-07-13T09:24:38;6.72;;;3.55;;
81318;SDS011;70784;48.420;14.830;2023-07-13T09:27:31;4.40;;;3.60;;
81318;SDS011;70784;48.420;14.830;2023-07-13T09:30:46;4.63;;;2.67;;
81318;SDS011;70784;48.420;14.830;2023-07-13T09:33:44;6.68;;;3.13;;
81318;SDS011;70784;48.420;14.830;2023-07-13T09:36:30;3.63;;;2.95;;
81318;SDS011;70784;48.420;14.830;2023-07-13T09:39:23;4.35;;;3.35;;
81318;SDS011;70784;48.420;14.830;2023-07-13T09:42:16;5.70;;;3.42;;
81318;SDS011;70784;48.420;14.830;2023-07-13T09:45:03;5.15;;;3.92;;
81318;SDS011;70784;48.420;14.830;2023-07-13T09:47:48;8.88;;;4.07;;
81318;SDS011;70784;48.420;14.830;2023-07-13T09:50:44;4.43;;;3.08;;
81318;SDS011;70784;48.420;14.830;2023-07-13T09:53:29;4.40;;;3.63;;
81318;SDS011;70784;48.420;14.830;2023-07-13T09:56:19;8.30;;;3.35;;
81318;SDS011;70784;48.420;14.830;2023-07-13T09:59:10;6.25;;;4.20;;
81318;SDS011;70784;48.420;14.830;2023-07-13T10:02:19;3.47;;;3.15;;
81318;SDS011;70784;48.420;14.830;2023-07-13T10:05:11;5.28;;;3.72;;
81318;SDS011;70784;48.420;14.830;2023-07-13T10:07:58;7.00;;;2.90;;
81318;SDS011;70784;48.420;14.830;2023-07-13T10:10:42;3.63;;;2.83;;
81318;SDS011;70784;48.420;14.830;2023-07-13T10:13:29;4.03;;;2.35;;
81318;SDS011;70784;48.420;14.830;2023-07-13T10:16:18;3.35;;;2.53;;
81318;SDS011;70784;48.420;14.830;2023-07-13T10:19:45;3.42;;;3.13;;
81318;SDS011;70784;48.420;14.830;2023-07-13T10:22:22;3.58;;;2.70;;
81318;SDS011;70784;48.420;14.830;2023-07-13T10:25:16;8.00;;;3.25;;
81318;SDS011;70784;48.420;14.830;2023-07-13T10:28:12;4.35;;;3.47;;
81318;SDS011;70784;48.420;14.830;2023-07-13T10:31:10;4.97;;;3.35;;
81318;SDS011;70784;48.420;14.830;2023-07-13T10:33:57;3.75;;;3.03;;
81318;SDS011;70784;48.420;14.830;2023-07-13T10:36:43;5.07;;;3.60;;
81318;SDS011;70784;48.420;14.830;2023-07-13T10:39:29;4.65;;;3.00;;
81318;SDS011;70784;48.420;14.830;2023-07-13T10:42:15;7.20;;;4.20;;
81318;SDS011;70784;48.420;14.830;2023-07-13T10:45:18;2.65;;;2.03;;
81318;SDS011;70784;48.420;14.830;2023-07-13T10:48:05;4.85;;;3.90;;
81318;SDS011;70784;48.420;14.830;2023-07-13T10:50:54;4.88;;;3.15;;
81318;SDS011;70784;48.420;14.830;2023-07-13T10:53:42;5.68;;;3.72;;
81318;SDS011;70784;48.420;14.830;2023-07-13T10:56:28;5.38;;;3.00;;
81318;SDS011;70784;48.420;14.830;2023-07-13T10:59:32;3.88;;;3.20;;
81318;SDS011;70784;48.420;14.830;2023-07-13T11:02:27;4.43;;;3.53;;
81318;SDS011;70784;48.420;14.830;2023-07-13T11:05:16;6.75;;;3.63;;
81318;SDS011;70784;48.420;14.830;2023-07-13T11:08:18;3.85;;;2.47;;
81318;SDS011;70784;48.420;14.830;2023-07-13T11:14:30;4.13;;;3.30;;
81318;SDS011;70784;48.420;14.830;2023-07-13T11:17:53;3.15;;;2.63;;
81318;SDS011;70784;48.420;14.830;2023-07-13T11:20:44;3.70;;;2.83;;
81318;SDS011;70784;48.420;14.830;2023-07-13T11:23:30;5.82;;;3.28;;
81318;SDS011;70784;48.420;14.830;2023-07-13T11:29:40;4.60;;;3.65;;
81318;SDS011;70784;48.420;14.830;2023-07-13T11:32:25;6.88;;;3.97;;
81318;SDS011;70784;48.420;14.830;2023-07-13T11:35:21;3.70;;;3.38;;
81318;SDS011;70784;48.420;14.830;2023-07-13T11:38:14;2.80;;;1.90;;
81318;SDS011;70784;48.420;14.830;2023-07-13T11:41:04;5.07;;;3.17;;
81318;SDS011;70784;48.420;14.830;2023-07-13T11:43:55;4.47;;;3.45;;
81318;SDS011;70784;48.420;14.830;2023-07-13T11:46:49;4.97;;;3.92;;
81318;SDS011;70784;48.420;14.830;2023-07-13T11:49:48;3.72;;;3.25;;
81318;SDS011;70784;48.420;14.830;2023-07-13T11:52:36;6.22;;;4.63;;
81318;SDS011;70784;48.420;14.830;2023-07-13T11:55:22;5.45;;;3.75;;
81318;SDS011;70784;48.420;14.830;2023-07-13T11:58:08;6.80;;;4.57;;
81318;SDS011;70784;48.420;14.830;2023-07-13T12:00:55;3.35;;;3.05;;
81318;SDS011;70784;48.420;14.830;2023-07-13T12:03:43;4.50;;;2.90;;
81318;SDS011;70784;48.420;14.830;2023-07-13T12:06:31;5.97;;;3.47;;
81318;SDS011;70784;48.420;14.830;2023-07-13T12:09:18;3.83;;;3.45;;
81318;SDS011;70784;48.420;14.830;2023-07-13T12:12:09;7.13;;;4.13;;
81318;SDS011;70784;48.420;14.830;2023-07-13T12:14:55;6.78;;;3.15;;
81318;SDS011;70784;48.420;14.830;2023-07-13T12:17:40;5.75;;;4.30;;
81318;SDS011;70784;48.420;14.830;2023-07-13T12:20:26;3.53;;;2.60;;
81318;SDS011;70784;48.420;14.830;2023-07-13T12:26:18;5.90;;;4.20;;
81318;SDS011;70784;48.420;14.830;2023-07-13T12:29:04;4.60;;;3.53;;
81318;SDS011;70784;48.420;14.830;2023-07-13T12:31:50;5.90;;;3.67;;
81318;SDS011;70784;48.420;14.830;2023-07-13T12:34:49;7.07;;;4.88;;
81318;SDS011;70784;48.420;14.830;2023-07-13T12:37:36;3.85;;;2.55;;
81318;SDS011;70784;48.420;14.830;2023-07-13T12:40:21;4.72;;;3.92;;
81318;SDS011;70784;48.420;14.830;2023-07-13T12:43:12;4.38;;;3.42;;
81318;SDS011;70784;48.420;14.830;2023-07-13T12:46:00;7.68;;;3.75;;
81318;SDS011;70784;48.420;14.830;2023-07-13T12:48:48;3.10;;;2.70;;
81318;SDS011;70784;48.420;14.830;2023-07-13T12:51:38;3.65;;;3.35;;
81318;SDS011;70784;48.420;14.830;2023-07-13T12:54:23;6.68;;;3.72;;
81318;SDS011;70784;48.420;14.830;2023-07-13T12:57:12;6.22;;;3.13;;
81318;SDS011;70784;48.420;14.830;2023-07-13T13:00:01;4.10;;;3.33;;
81318;SDS011;70784;48.420;14.830;2023-07-13T13:02:49;4.70;;;4.28;;
81318;SDS011;70784;48.420;14.830;2023-07-13T13:05:35;7.03;;;4.00;;
81318;SDS011;70784;48.420;14.830;2023-07-13T13:08:22;2.60;;;2.17;;
81318;SDS011;70784;48.420;14.830;2023-07-13T13:11:06;5.95;;;3.20;;
81318;SDS011;70784;48.420;14.830;2023-07-13T13:13:51;2.17;;;1.67;;
81318;SDS011;70784;48.420;14.830;2023-07-13T13:16:39;4.82;;;3.60;;
81318;SDS011;70784;48.420;14.830;2023-07-13T13:19:31;6.25;;;4.57;;
81318;SDS011;70784;48.420;14.830;2023-07-13T13:22:15;3.58;;;2.80;;
81318;SDS011;70784;48.420;14.830;2023-07-13T13:25:00;4.47;;;3.65;;
81318;SDS011;70784;48.420;14.830;2023-07-13T13:27:45;5.53;;;4.38;;
81318;SDS011;70784;48.420;14.830;2023-07-13T13:30:30;3.47;;;2.60;;
81318;SDS011;70784;48.420;14.830;2023-07-13T13:33:16;4.85;;;3.30;;
81318;SDS011;70784;48.420;14.830;2023-07-13T13:36:02;4.65;;;4.05;;
81318;SDS011;70784;48.420;14.830;2023-07-13T13:38:47;3.97;;;3.15;;
81318;SDS011;70784;48.420;14.830;2023-07-13T13:41:32;4.22;;;2.65;;
81318;SDS011;70784;48.420;14.830;2023-07-13T13:44:17;3.88;;;3.25;;
81318;SDS011;70784;48.420;14.830;2023-07-13T13:47:02;2.97;;;2.15;;
81318;SDS011;70784;48.420;14.830;2023-07-13T13:49:47;6.25;;;3.65;;
81318;SDS011;70784;48.420;14.830;2023-07-13T13:52:32;4.95;;;3.80;;
81318;SDS011;70784;48.420;14.830;2023-07-13T13:55:20;4.30;;;3.40;;
81318;SDS011;70784;48.420;14.830;2023-07-13T13:58:08;5.57;;;2.95;;
81318;SDS011;70784;48.420;14.830;2023-07-13T14:00:54;5.63;;;2.83;;
81318;SDS011;70784;48.420;14.830;2023-07-13T14:03:38;3.42;;;2.10;;
81318;SDS011;70784;48.420;14.830;2023-07-13T14:06:23;4.45;;;3.10;;
81318;SDS011;70784;48.420;14.830;2023-07-13T14:09:11;3.95;;;3.05;;
81318;SDS011;70784;48.420;14.830;2023-07-13T14:11:59;4.70;;;2.88;;
81318;SDS011;70784;48.420;14.830;2023-07-13T14:14:44;6.60;;;3.70;;
81318;SDS011;70784;48.420;14.830;2023-07-13T14:17:28;3.85;;;1.75;;
81318;SDS011;70784;48.420;14.830;2023-07-13T14:20:13;5.00;;;3.40;;
81318;SDS011;70784;48.420;14.830;2023-07-13T14:22:59;3.65;;;2.70;;
81318;SDS011;70784;48.420;14.830;2023-07-13T14:25:44;5.75;;;2.35;;
81318;SDS011;70784;48.420;14.830;2023-07-13T14:28:31;4.00;;;2.55;;
81318;SDS011;70784;48.420;14.830;2023-07-13T14:31:16;5.60;;;2.72;;
81318;SDS011;70784;48.420;14.830;2023-07-13T14:34:01;4.65;;;3.33;;
81318;SDS011;70784;48.420;14.830;2023-07-13T14:36:47;4.65;;;3.33;;
81318;SDS011;70784;48.420;14.830;2023-07-13T14:39:33;4.70;;;3.38;;
81318;SDS011;70784;48.420;14.830;2023-07-13T14:42:18;5.25;;;2.90;;
81318;SDS011;70784;48.420;14.830;2023-07-13T14:45:02;8.20;;;2.72;;
81318;SDS011;70784;48.420;14.830;2023-07-13T14:47:47;2.95;;;2.22;;
81318;SDS011;70784;48.420;14.830;2023-07-13T14:50:32;6.82;;;3.15;;
81318;SDS011;70784;48.420;14.830;2023-07-13T14:53:19;3.45;;;3.15;;
81318;SDS011;70784;48.420;14.830;2023-07-13T14:56:09;3.22;;;2.45;;
81318;SDS011;70784;48.420;14.830;2023-07-13T14:58:55;4.40;;;3.13;;
81318;SDS011;70784;48.420;14.830;2023-07-13T15:01:39;3.67;;;2.38;;
81318;SDS011;70784;48.420;14.830;2023-07-13T15:04:25;2.85;;;2.53;;
81318;SDS011;70784;48.420;14.830;2023-07-13T15:07:10;3.42;;;2.90;;
81318;SDS011;70784;48.420;14.830;2023-07-13T15:09:57;4.47;;;2.55;;
81318;SDS011;70784;48.420;14.830;2023-07-13T15:12:42;3.85;;;1.98;;
81318;SDS011;70784;48.420;14.830;2023-07-13T15:15:27;3.97;;;1.80;;
81318;SDS011;70784;48.420;14.830;2023-07-13T15:18:16;2.88;;;2.03;;
81318;SDS011;70784;48.420;14.830;2023-07-13T15:21:02;3.40;;;2.25;;
81318;SDS011;70784;48.420;14.830;2023-07-13T15:23:48;4.18;;;2.45;;
81318;SDS011;70784;48.420;14.830;2023-07-13T15:26:33;5.32;;;2.47;;
81318;SDS011;70784;48.420;14.830;2023-07-13T15:29:18;3.45;;;2.25;;
81318;SDS011;70784;48.420;14.830;2023-07-13T15:32:02;2.35;;;1.60;;
81318;SDS011;70784;48.420;14.830;2023-07-13T15:34:47;5.40;;;2.13;;
81318;SDS011;70784;48.420;14.830;2023-07-13T15:37:31;2.90;;;1.83;;
81318;SDS011;70784;48.420;14.830;2023-07-13T15:40:16;3.60;;;1.52;;
81318;SDS011;70784;48.420;14.830;2023-07-13T15:43:01;3.35;;;1.60;;
81318;SDS011;70784;48.420;14.830;2023-07-13T15:45:46;2.63;;;1.98;;
81318;SDS011;70784;48.420;14.830;2023-07-13T15:48:31;1.80;;;1.50;;
81318;SDS011;70784;48.420;14.830;2023-07-13T15:51:29;4.43;;;2.03;;
81318;SDS011;70784;48.420;14.830;2023-07-13T15:54:18;1.48;;;0.90;;
81318;SDS011;70784;48.420;14.830;2023-07-13T15:57:03;5.10;;;2.20;;
81318;SDS011;70784;48.420;14.830;2023-07-13T15:59:48;2.22;;;1.52;;
81318;SDS011;70784;48.420;14.830;2023-07-13T16:02:33;4.22;;;2.22;;
81318;SDS011;70784;48.420;14.830;2023-07-13T16:05:18;3.42;;;2.13;;
81318;SDS011;70784;48.420;14.830;2023-07-13T16:08:04;2.15;;;1.65;;
81318;SDS011;70784;48.420;14.830;2023-07-13T16:10:51;2.58;;;1.48;;
81318;SDS011;70784;48.420;14.830;2023-07-13T16:13:36;3.08;;;1.55;;
81318;SDS011;70784;48.420;14.830;2023-07-13T16:16:24;1.60;;;1.30;;
81318;SDS011;70784;48.420;14.830;2023-07-13T16:19:13;2.28;;;1.88;;
81318;SDS011;70784;48.420;14.830;2023-07-13T16:21:58;2.38;;;1.95;;
81318;SDS011;70784;48.420;14.830;2023-07-13T16:24:44;3.22;;;1.77;;
81318;SDS011;70784;48.420;14.830;2023-07-13T16:27:29;3.85;;;2.38;;
81318;SDS011;70784;48.420;14.830;2023-07-13T16:30:15;3.97;;;1.67;;
81318;SDS011;70784;48.420;14.830;2023-07-13T16:33:10;2.88;;;1.45;;
81318;SDS011;70784;48.420;14.830;2023-07-13T16:36:02;2.15;;;1.35;;
81318;SDS011;70784;48.420;14.830;2023-07-13T16:38:48;2.97;;;2.47;;
81318;SDS011;70784;48.420;14.830;2023-07-13T16:41:33;1.83;;;1.40;;
81318;SDS011;70784;48.420;14.830;2023-07-13T16:44:18;1.77;;;1.65;;
81318;SDS011;70784;48.420;14.830;2023-07-13T16:47:04;1.77;;;1.58;;
81318;SDS011;70784;48.420;14.830;2023-07-13T16:49:55;1.70;;;1.40;;
81318;SDS011;70784;48.420;14.830;2023-07-13T16:52:42;4.28;;;1.60;;
81318;SDS011;70784;48.420;14.830;2023-07-13T16:55:27;1.90;;;1.75;;